RPLLRPVP

Guest
Details From RPLL - Manille Ninoy Aquino Intl
To RPVP - Puerto Princesa
Flight Number -
Tags Generated
Created
Modified
Stats Distance 316 nm / 586 km
Max Altitude 0 ft / 0 m
Waypoints 3
Social Downloads 1
Likes 0
Share VATSIM

Download

Looking for another format? Having issues loading an existing format? Contact us
Advertisement - Login to hide

Notes

Generated

Route

RPLL GAMAN RPVP

ID Type Via Altitude Latitude Longitude Leg Dist Tot Dist Heading (true) Name
O RPLL APT - 0 ft / 0 m 14.52421˚ 121.00346˚ - 0 nm - -
GAMAN FIX - 0 ft / 0 m 10.04513˚ 118.89503˚ 296 nm 296 nm 205° / 204° -
O RPVP APT - 0 ft / 0 m 9.74263˚ 118.74689˚ 20 nm 316 nm 206° / 206° -

Altitude Profile

Advertisement - Login to hide

Weather


0- 5 10 15 20 25 30 35+ Temperature / ° C

Clouds and Precipitation
Forecast for 2017-12-15 18:00 UTC. Updated 31 minutes ago

Ground ~20,000 ft ~40,000 ft Winds

RPLL

Details ICAO RPLL (MNL)
Name Ninoy Aquino International Airport
Region Philippines
Timezone Asia/Manila (UTC+8.0)
Stats Elevation 75 ft / 23 m (AMSL)
Location 14.511513° 121.012718°
Runways 2
Magnetic Variation 2.158° W

METAR

RPLL 151500Z 22002KT 9999 FEW023 SCT100 BKN300 25/20 Q1012 NOSIG RMK A2988

Decode

TAF

TAF RPLL 151100Z 1512/1618 09008KT 9999 FEW023 BKN100 TX30/1606Z TN24/1521Z TEMPO 1512/1518 11005KT SCT023 OVC090 TEMPO 1519/1524 10004KT SCT023 OVC100

Decode

Departure Runways

ID Width Length Bearing (true) Bearing (mag) Surface Threshold Offset Overrun Length
06 211 ft / 64 m 11,788 ft / 3,593 m 60.18° 62.34° Asphalt 587 ft / 179 m 0 ft / 0 m
13 151 ft / 46 m 5,850 ft / 1,783 m 134.93° 137.09° Asphalt 0 ft / 0 m 696 ft / 212 m
24 211 ft / 64 m 11,788 ft / 3,593 m 240.19° 242.35° Asphalt 0 ft / 0 m 331 ft / 101 m
31 151 ft / 46 m 5,850 ft / 1,783 m 314.93° 317.09° Asphalt 0 ft / 0 m 459 ft / 140 m

RPVP

Details ICAO RPVP (PPS)
Name PUERTO PRINCESA
Region Philippines
Timezone Asia/Manila (UTC+8.0)
Stats Elevation 71 ft / 22 m (AMSL)
Location 9.742119° 118.758730°
Runways 1
Magnetic Variation 1.155° W

METAR

RPVP 151500Z 27004KT 9999 FEW019 OVC240 25/23 Q1011 RMK A2985

Decode

TAF

Not found

Destination Runways

ID Width Length Bearing (true) Bearing (mag) Surface Threshold Offset Overrun Length
09 148 ft / 45 m 8,526 ft / 2,599 m 92.52° 93.68° Concrete 0 ft / 0 m 560 ft / 171 m
27 148 ft / 45 m 8,526 ft / 2,599 m 272.52° 273.68° Concrete 0 ft / 0 m 574 ft / 175 m

Popular Alternatives